KAFF/AFF METAR and TAF weather

Enter ICAO airport designator
Station Type Date Time Source
KAFF METAR 2020/09/19 00:58 UTC NOAA

KAFF 190058Z AUTO 15012KT 10SM OVC140 22/M02 A3024 RMK AO2 SLP171 T02171016


Station Type Date Time Source
KAFF Decoded METAR 2020/09/19 00:58 UTC NOAA

Air Force Academy, CO, United States (KAFF) 38-58N 104-49W 1999M
Sep 18, 2020 - 08:58 PM EDT / 2020.09.19 0058 UTC
Wind: from the SSE (150 degrees) at 14 MPH (12 KT):0
Visibility: 10 mile(s):0
Sky conditions: overcast
Temperature: 71.1 F (21.7 C)
Dew Point: 29.1 F (-1.6 C)
Relative Humidity: 20%
Pressure (altimeter): 30.24 in. Hg (1024 hPa)
ob: KAFF 190058Z AUTO 15012KT 10SM OVC140 22/M02 A3024 RMK AO2 SLP171 T02171016
cycle: 1

Station Type Date Time Source
KAFF TAF 2020/09/18 19:09 UTC NOAA

TAF TAF KAFF 181901Z 1819/2001 16012G20KT 9999 BKN120 QNH3030INS
TEMPO 1821/1901 15015G25KT 510009
BECMG 1900/1901 15009KT 9999 SCT120 BKN250 510009 QNH3023INS WND 35009KT AFT 1904
BECMG 1910/1911 01009KT 9999 SCT120 BKN250 WS010/27030KT 530105 QNH3021INS WND 240V060 ROTOR CONDS EXIST
BECMG 1912/1913 27015G25KT 9999 SCT120 BKN250 WS010/27035KT 530006 QNH3019INS ROTOR CONDS EXIST
BECMG 1915/1916 16009KT 9999 FEW120 SCT250 510009 QNH3016INS
BECMG 1919/1920 16012G20KT 9999 FEW120 SCT250 510009 QNH3012INS TX26/1822Z TN08/1912Z LAST NO
AMDS AFT 1901 NEXT 1911

Example: see airport list